Airfield :
LOGIN :

Register | Disclaimer

   EN    FR    IT 

 










Legend :    VFR   Marginal VFR   IFR   Intensive IFR   Very Intensive IFR
Visi :
Ceiling :
>= 8 km
>= 3000ft
5 to 8 km
1000 to 3000 ft
1500m to 5 km
500 to 1000 ft
800 to 1500m
200 to 500 ft
< 800m
< 200 ft
Symbols :   Thunderstorms  Fog  Heavy snow  Heavy precipitations  Wind > 20 kt
SIGMETs :     Misc.  Thunderstorms  Icing  Turbulence  Mountain Waves  Volcanic Ashes







- Airport Elevation : 300 ft
- IATA code : MLA


LMML - Malta Luqa

CURRENT METAR :
  • 201515Z 25004KT 9999 SCT028TCU 27/19 Q1016 NOSIG

EXPIRED METARs :
  • 201445Z 25006KT 9999 FEW024CB SCT028TCU 28/18 Q1016 NOSIG
  • 201415Z 25008KT 9999 FEW024CB SCT028TCU 29/19 Q1016 TEMPO 7000 TSRA
  • 201345Z 26006KT 230V290 9999 FEW024CB SCT028TCU 28/19 Q1016 NOSIG
  • 201315Z 25006KT 220V280 9999 FEW024CB SCT026TCU 28/19 Q1016 TEMPO 7000 TSRA
  • 201245Z 24006KT 9999 FEW024CB SCT026TCU 28/20 Q1016 TEMPO 7000 TSRA

TAF TAF LMML
Valid from the 20 at 12:00 until the 21 at 12:00 UTC


201100Z 2012/2112 23007KT 9999 SCT018
TEMPO 2012/2112 7000 SHRA BKN018TCU
PROB40 2012/2112 VRB15G30KT 2000 TSRA BKN015CB
No reported NOTAMs for that airfield.
1 SIGMET reported for the Malta FIR (LMMM) :
 
Frequent thunderstorms
LMMM SIGMET 3 VALID 201232/201632 LMML
LMMM MALTA FIR FRQ TS OBS W OF E018 TOP FL400 MOV E TO SE INTSF=



MET'MAP, your aeronautical weather chart ! - Copyright ORBIFLY December 2007 - Disclaimer

ORBIFLY MET'MAP TEAM :

Programming & Development : Alexandra Zaïnal
Concept & Development : Baudouin d'Aumeries
Co-Development & Prog : Marc-Olivier Méhu
Technical & hardware support : Manuel Goepfert

Contact : metmap@orbifly.com




SOURCES & CREDITS :

   NOAA